Time;durP1;ratioP1;P1;durP2;ratioP2;P2;SDS_P1;SDS_P2;PMS_P1;PMS_P2;Temp;Humidity;BMP_temperature;BMP_pressure;BME280_temperature;BME280_humidity;BME280_pressure;Samples;Min_cycle;Max_cycle;Signal;HPM_P1;HPM_P2
2021/05/25 00:00:24;;;;;;;2.20;1.00;;;;;;;11.86;72.79;100051.97;5057637;28;20312;-78
2021/05/25 00:02:50;;;;;;;1.63;0.80;;;;;;;11.82;72.77;100067.38;5056762;28;20210;-78
2021/05/25 00:05:22;;;;;;;1.13;1.00;;;;;;;11.78;72.90;100057.94;5057214;28;20623;-79
2021/05/25 00:07:48;;;;;;;1.37;1.10;;;;;;;11.76;73.00;100064.34;5055473;28;20201;-77
2021/05/25 00:10:15;;;;;;;1.30;0.97;;;;;;;11.71;73.00;100064.66;5056482;28;20259;-77
2021/05/25 00:12:42;;;;;;;1.10;0.97;;;;;;;11.70;73.30;100070.97;5057581;28;20210;-77
2021/05/25 00:15:11;;;;;;;1.87;1.10;;;;;;;11.66;73.40;100085.50;5057686;28;20223;-77
2021/05/25 00:17:37;;;;;;;1.20;1.00;;;;;;;11.62;73.36;100089.41;5057228;28;20214;-77
2021/05/25 00:20:06;;;;;;;1.53;1.20;;;;;;;11.58;73.77;100087.91;5056579;28;20230;-79
2021/05/25 00:22:33;;;;;;;1.80;0.80;;;;;;;11.57;73.91;100101.38;5056307;28;20241;-76
2021/05/25 00:24:59;;;;;;;0.83;0.80;;;;;;;11.55;73.77;100109.47;5056718;28;20668;-77
2021/05/25 00:27:25;;;;;;;1.90;0.90;;;;;;;11.55;74.18;100112.16;5055708;28;20301;-77
2021/05/25 00:29:51;;;;;;;1.10;0.80;;;;;;;11.54;74.15;100107.78;5054974;28;20740;-78
2021/05/25 00:32:17;;;;;;;1.47;1.33;;;;;;;11.56;74.35;100105.00;5055054;28;20326;-77
2021/05/25 00:34:43;;;;;;;3.07;1.03;;;;;;;11.57;74.37;100102.22;5055206;28;20212;-77
2021/05/25 00:37:10;;;;;;;1.47;0.70;;;;;;;11.58;74.50;100103.94;5057196;28;20206;-78
2021/05/25 00:39:37;;;;;;;1.27;0.80;;;;;;;11.58;74.31;100114.59;5058421;28;20275;-77
2021/05/25 00:42:04;;;;;;;1.07;0.90;;;;;;;11.58;74.54;100103.94;5057256;28;20197;-77
2021/05/25 00:44:30;;;;;;;1.20;0.90;;;;;;;11.58;74.55;100114.59;5052644;28;20611;-78
2021/05/25 00:46:56;;;;;;;2.33;0.97;;;;;;;11.59;74.51;100113.63;5036644;28;20241;-77
2021/05/25 00:49:22;;;;;;;1.50;0.80;;;;;;;11.60;74.36;100112.66;5036065;28;20234;-77
2021/05/25 00:51:48;;;;;;;1.60;0.97;;;;;;;11.61;74.29;100113.50;5027970;28;20206;-78
2021/05/25 00:54:15;;;;;;;0.80;0.80;;;;;;;11.61;74.40;100114.38;5037509;28;20286;-77
2021/05/25 00:56:42;;;;;;;1.40;0.93;;;;;;;11.62;74.25;100115.22;5039817;28;20210;-77
2021/05/25 00:59:08;;;;;;;2.00;1.00;;;;;;;11.64;74.15;100119.47;5039775;28;20227;-77
2021/05/25 01:01:34;;;;;;;2.03;0.90;;;;;;;11.64;74.24;100114.13;5036832;28;20210;-77
2021/05/25 01:04:00;;;;;;;1.80;0.97;;;;;;;11.65;74.15;100120.28;5039908;28;20279;-79
2021/05/25 01:06:26;;;;;;;1.63;1.07;;;;;;;11.66;73.95;100122.84;5040030;28;20206;-78
2021/05/25 01:08:52;;;;;;;2.33;1.10;;;;;;;11.67;73.93;100116.53;5044335;28;20214;-78
2021/05/25 01:11:20;;;;;;;1.13;0.80;;;;;;;11.68;74.16;100109.38;5037004;28;20222;-78
2021/05/25 01:13:49;;;;;;;1.70;1.00;;;;;;;11.68;74.00;100118.25;5037451;28;20291;-77
2021/05/25 01:16:16;;;;;;;1.00;0.90;;;;;;;11.70;73.91;100112.78;5048682;22;20249;-64
2021/05/25 01:18:43;;;;;;;1.83;1.20;;;;;;;11.71;73.90;100106.50;5044264;28;20301;-67
2021/05/25 01:21:12;;;;;;;1.73;0.83;;;;;;;11.71;74.18;100094.00;5042472;28;20243;-66
2021/05/25 01:23:39;;;;;;;0.70;0.70;;;;;;;11.72;73.83;100092.19;5038886;28;20211;-64
2021/05/25 01:26:06;;;;;;;1.93;0.97;;;;;;;11.73;73.78;100078.75;5049091;28;20206;-66
2021/05/25 01:28:34;;;;;;;3.97;0.90;;;;;;;11.74;73.59;100085.78;5044600;28;20293;-65
2021/05/25 01:31:01;;;;;;;1.13;1.00;;;;;;;11.76;73.43;100089.22;5072170;22;20289;-66
2021/05/25 01:33:29;;;;;;;1.63;1.03;;;;;;;11.78;73.54;100105.09;5048212;28;20262;-65
2021/05/25 01:35:56;;;;;;;1.73;0.97;;;;;;;11.78;73.36;100107.78;5048729;28;20213;-66
2021/05/25 01:38:23;;;;;;;1.30;1.07;;;;;;;11.79;73.46;100102.31;5050422;28;20201;-66
2021/05/25 01:40:52;;;;;;;0.90;0.80;;;;;;;11.80;73.37;100103.16;5042854;28;20244;-67
2021/05/25 01:43:18;;;;;;;1.50;1.00;;;;;;;11.79;73.43;100106.81;5043213;28;20206;-66
2021/05/25 01:45:44;;;;;;;2.77;1.00;;;;;;;11.77;73.08;100104.25;5049380;28;20212;-66
2021/05/25 01:48:11;;;;;;;1.53;0.90;;;;;;;11.75;73.10;100106.16;5049074;28;20207;-66
2021/05/25 01:50:39;;;;;;;1.17;1.07;;;;;;;11.75;73.19;100103.47;5048956;28;20233;-66
2021/05/25 01:53:07;;;;;;;2.03;1.03;;;;;;;11.75;73.36;100107.97;5048118;28;20598;-66
2021/05/25 01:55:36;;;;;;;1.90;1.03;;;;;;;11.74;73.43;100107.13;5049024;28;20684;-66
2021/05/25 01:58:06;;;;;;;1.87;0.87;;;;;;;11.73;73.41;100108.09;5049667;28;20198;-65
2021/05/25 02:00:32;;;;;;;0.80;0.80;;;;;;;11.72;73.49;100106.38;5042547;28;20224;-66
2021/05/25 02:02:59;;;;;;;1.30;0.80;;;;;;;11.69;73.10;100106.59;5047838;28;20214;-68
2021/05/25 02:05:25;;;;;;;1.43;0.70;;;;;;;11.67;73.28;100103.22;5049329;28;20203;-66
2021/05/25 02:07:52;;;;;;;0.83;0.70;;;;;;;11.65;73.01;100104.28;5049406;28;20253;-65
2021/05/25 02:10:27;;;;;;;0.93;0.80;;;;;;;11.62;73.04;100107.22;5049281;28;20252;-66
2021/05/25 02:12:55;;;;;;;1.40;0.70;;;;;;;11.59;72.91;100096.78;5047237;28;20682;-66
2021/05/25 02:15:22;;;;;;;1.53;0.80;;;;;;;11.56;72.83;100105.00;5049459;28;20297;-66
2021/05/25 02:17:48;;;;;;;1.60;1.30;;;;;;;11.53;72.93;100099.91;5047526;28;20214;-68
2021/05/25 02:20:15;;;;;;;1.10;0.70;;;;;;;11.49;72.79;100105.47;5049308;28;20226;-66
2021/05/25 02:22:41;;;;;;;0.80;0.80;;;;;;;11.46;72.67;100108.34;5047210;28;20585;-66
2021/05/25 02:25:07;;;;;;;1.17;0.73;;;;;;;11.43;72.83;100113.94;5049013;28;20212;-66
2021/05/25 02:27:34;;;;;;;1.00;0.90;;;;;;;11.39;72.57;100108.94;5049448;28;20198;-65
2021/05/25 02:30:00;;;;;;;0.70;0.70;;;;;;;11.34;72.59;100111.94;5048854;28;20226;-66
2021/05/25 02:32:28;;;;;;;1.37;0.60;;;;;;;11.32;72.35;100113.03;5049325;28;20736;-66
2021/05/25 02:34:54;;;;;;;0.60;0.60;;;;;;;11.26;72.54;100110.84;5048107;28;20206;-66
2021/05/25 02:37:20;;;;;;;1.47;0.77;;;;;;;11.22;72.06;100112.03;5049699;28;20206;-65
2021/05/25 02:39:46;;;;;;;1.07;0.70;;;;;;;11.18;72.33;100111.41;5048889;28;20744;-66
2021/05/25 02:42:12;;;;;;;0.80;0.80;;;;;;;11.17;72.37;100119.50;5046240;28;20206;-65
2021/05/25 02:44:39;;;;;;;0.80;0.80;;;;;;;11.12;72.05;100123.34;5052123;28;20212;-65
2021/05/25 02:47:05;;;;;;;0.70;0.70;;;;;;;11.10;72.20;100130.63;5052953;28;20204;-66
2021/05/25 02:49:32;;;;;;;1.83;0.73;;;;;;;11.07;71.73;100133.53;5051978;28;20267;-66
2021/05/25 02:51:58;;;;;;;1.13;0.50;;;;;;;11.06;71.56;100133.63;5051737;28;20201;-66
2021/05/25 02:54:24;;;;;;;0.50;0.50;;;;;;;11.04;71.66;100139.06;5051983;28;20198;-67
2021/05/25 02:56:50;;;;;;;4.53;0.83;;;;;;;11.05;71.71;100137.25;5051587;28;20268;-66
2021/05/25 02:59:16;;;;;;;2.37;0.70;;;;;;;11.05;72.03;100148.78;5053425;28;20207;-66
2021/05/25 03:01:42;;;;;;;0.93;0.70;;;;;;;11.06;71.56;100144.28;5051093;28;20659;-66
2021/05/25 03:04:08;;;;;;;0.70;0.70;;;;;;;11.08;71.85;100142.38;5052141;28;20202;-66
2021/05/25 03:06:35;;;;;;;0.60;0.60;;;;;;;11.06;71.82;100150.47;5051137;28;20293;-66
2021/05/25 03:09:01;;;;;;;0.60;0.60;;;;;;;11.03;71.51;100149.84;5052098;28;20205;-66
2021/05/25 03:11:29;;;;;;;1.33;0.50;;;;;;;11.01;71.26;100149.09;5051517;28;20638;-65
2021/05/25 03:13:54;;;;;;;1.07;0.50;;;;;;;10.98;71.01;100157.31;5050532;28;20202;-66
2021/05/25 03:16:20;;;;;;;1.30;0.60;;;;;;;10.93;71.14;100149.66;5051884;28;20262;-66
2021/05/25 03:18:46;;;;;;;0.90;0.57;;;;;;;10.93;71.02;100154.13;5050961;28;20687;-65
2021/05/25 03:21:12;;;;;;;0.90;0.60;;;;;;;10.89;70.63;100156.19;5051802;28;20297;-66
2021/05/25 03:23:39;;;;;;;0.50;0.50;;;;;;;10.86;70.50;100159.06;5050729;28;20208;-66
2021/05/25 03:26:05;;;;;;;1.50;0.60;;;;;;;10.83;70.55;100167.28;5051550;28;20237;-66
2021/05/25 03:28:31;;;;;;;1.13;0.60;;;;;;;10.76;70.23;100150.88;5051875;28;20213;-66
2021/05/25 03:30:58;;;;;;;0.40;0.40;;;;;;;10.73;70.44;100174.22;5051047;28;20236;-65
2021/05/25 03:33:24;;;;;;;0.87;0.50;;;;;;;10.68;70.30;100163.03;5050414;28;20201;-65
2021/05/25 03:35:50;;;;;;;1.53;0.60;;;;;;;10.64;69.89;100166.88;5051796;28;20226;-65
2021/05/25 03:38:16;;;;;;;1.07;0.40;;;;;;;10.61;69.96;100170.59;5051980;28;20580;-66
2021/05/25 03:40:43;;;;;;;0.57;0.40;;;;;;;10.59;69.74;100166.34;5049149;28;20282;-65
2021/05/25 03:43:09;;;;;;;1.20;0.57;;;;;;;10.57;69.85;100165.63;5048609;28;20201;-66
2021/05/25 03:45:35;;;;;;;1.23;0.50;;;;;;;10.57;69.96;100165.63;5051314;28;20209;-66
2021/05/25 03:48:01;;;;;;;0.67;0.47;;;;;;;10.56;70.06;100174.59;5050865;28;20433;-66
2021/05/25 03:50:27;;;;;;;1.50;0.43;;;;;;;10.54;69.64;100180.00;5051165;28;20241;-66
2021/05/25 03:52:55;;;;;;;1.13;0.60;;;;;;;10.54;69.35;100179.16;5049463;28;20201;-67
2021/05/25 03:55:32;;;;;;;1.60;1.10;;;;;;;10.53;69.54;100183.63;5047256;28;20208;-66
2021/05/25 04:00:39;;;;;;;2.07;0.40;;;;;;;10.56;69.71;100187.91;5006965;28;20299;-66
2021/05/25 04:03:05;;;;;;;0.80;0.47;;;;;;;10.57;69.54;100200.25;5050204;28;20217;-65
2021/05/25 04:05:32;;;;;;;0.90;0.40;;;;;;;10.57;70.04;100193.09;5051484;28;20221;-66
2021/05/25 04:07:58;;;;;;;0.80;0.40;;;;;;;10.59;69.75;100193.84;5051667;28;20202;-67
2021/05/25 04:10:24;;;;;;;0.80;0.60;;;;;;;10.60;69.34;100208.84;5050320;28;20705;-65
2021/05/25 04:12:50;;;;;;;1.20;0.60;;;;;;;10.62;69.88;100211.41;5050588;28;20205;-66
2021/05/25 04:15:18;;;;;;;2.50;1.13;;;;;;;10.64;69.84;100212.16;5050615;28;20198;-67
2021/05/25 04:17:44;;;;;;;1.47;0.50;;;;;;;10.63;69.80;100203.31;5051083;28;20206;-67
2021/05/25 04:20:11;;;;;;;1.00;0.30;;;;;;;10.57;69.47;100213.56;5050554;28;20240;-67
2021/05/25 04:22:38;;;;;;;1.97;0.50;;;;;;;10.47;68.90;100210.69;5049564;28;20983;-67
2021/05/25 04:25:06;;;;;;;1.70;0.47;;;;;;;10.40;68.78;100204.06;5050966;28;20216;-67
2021/05/25 04:27:32;;;;;;;0.97;0.30;;;;;;;10.33;69.21;100208.13;5050753;28;20703;-67
2021/05/25 04:29:58;;;;;;;0.53;0.50;;;;;;;10.28;69.61;100210.25;5050067;28;20221;-68
2021/05/25 04:32:24;;;;;;;0.50;0.50;;;;;;;10.22;70.45;100206.19;5049381;28;20746;-68
2021/05/25 04:34:50;;;;;;;0.63;0.50;;;;;;;10.18;70.21;100202.03;5050176;28;20667;-68
2021/05/25 04:37:17;;;;;;;0.50;0.50;;;;;;;10.15;71.03;100204.91;5047323;28;20246;-68
2021/05/25 04:39:43;;;;;;;1.30;0.50;;;;;;;10.12;71.05;100202.44;5049794;28;20615;-68
2021/05/25 04:42:09;;;;;;;0.70;0.57;;;;;;;10.09;71.76;100214.13;5048534;28;20263;-67
2021/05/25 04:44:35;;;;;;;1.40;0.50;;;;;;;10.09;72.00;100216.81;5049404;28;20201;-67
2021/05/25 04:47:01;;;;;;;0.90;0.50;;;;;;;10.09;72.50;100222.13;5050553;28;20205;-67
2021/05/25 04:49:28;;;;;;;1.53;0.80;;;;;;;10.10;72.67;100215.00;5049461;28;20734;-67
2021/05/25 04:51:54;;;;;;;0.60;0.60;;;;;;;10.12;72.24;100210.41;5049813;28;20208;-67
2021/05/25 04:54:20;;;;;;;1.43;0.70;;;;;;;10.13;73.25;100214.78;5049635;28;20296;-67
2021/05/25 04:56:46;;;;;;;0.83;0.50;;;;;;;10.14;73.27;100213.84;5049087;28;20675;-67
2021/05/25 04:59:12;;;;;;;0.93;0.60;;;;;;;10.16;73.51;100217.25;5049717;28;20210;-67
2021/05/25 05:01:38;;;;;;;2.90;0.60;;;;;;;10.20;72.89;100208.13;5048697;28;20204;-67
2021/05/25 05:04:04;;;;;;;0.50;0.50;;;;;;;10.25;73.09;100213.13;5049541;28;20210;-67
2021/05/25 05:06:31;;;;;;;0.83;0.70;;;;;;;10.31;73.56;100212.69;5049007;28;20662;-66
2021/05/25 05:08:57;;;;;;;0.87;0.53;;;;;;;10.35;73.66;100212.41;5049867;28;20202;-67
2021/05/25 05:11:23;;;;;;;1.00;0.70;;;;;;;10.43;72.93;100210.03;5037634;28;20248;-67
2021/05/25 05:13:49;;;;;;;1.13;0.50;;;;;;;10.54;72.97;100221.75;5048585;28;20691;-67
2021/05/25 05:16:15;;;;;;;0.83;0.50;;;;;;;10.60;72.93;100214.19;5049431;28;20207;-67
2021/05/25 05:18:41;;;;;;;0.60;0.50;;;;;;;10.68;72.90;100218.97;5049471;28;20202;-67
2021/05/25 05:21:07;;;;;;;0.97;0.60;;;;;;;10.73;72.33;100216.84;5046343;28;20218;-67
2021/05/25 05:23:34;;;;;;;0.83;0.60;;;;;;;10.76;71.93;100225.44;5048811;28;20210;-67
2021/05/25 05:26:00;;;;;;;0.70;0.60;;;;;;;10.80;71.42;100228.75;5048615;28;20553;-66
2021/05/25 05:28:26;;;;;;;0.67;0.40;;;;;;;10.83;70.73;100233.88;5049379;28;20205;-67
2021/05/25 05:30:52;;;;;;;2.77;0.50;;;;;;;10.88;70.46;100228.22;5046043;28;20779;-66
2021/05/25 05:33:18;;;;;;;0.57;0.40;;;;;;;10.96;70.16;100234.69;5047489;28;20206;-67
2021/05/25 05:35:44;;;;;;;0.60;0.40;;;;;;;11.09;70.09;100226.69;5046791;28;20211;-66
2021/05/25 05:38:11;;;;;;;0.57;0.40;;;;;;;11.25;69.53;100231.75;5041675;28;20208;-67
2021/05/25 05:40:38;;;;;;;1.30;0.60;;;;;;;11.38;69.22;100232.56;5048199;28;20222;-67
2021/05/25 05:43:04;;;;;;;1.43;0.50;;;;;;;11.48;68.51;100236.22;5042743;28;20201;-68
2021/05/25 05:45:30;;;;;;;1.17;0.70;;;;;;;11.55;67.69;100232.16;5049182;28;20214;-67
2021/05/25 05:47:56;;;;;;;0.60;0.53;;;;;;;11.58;67.42;100239.09;5049074;28;20206;-67
2021/05/25 05:50:23;;;;;;;1.43;0.60;;;;;;;11.62;66.62;100240.56;5040624;28;20229;-67
2021/05/25 05:52:49;;;;;;;1.17;0.50;;;;;;;11.63;66.70;100245.81;5037038;28;20217;-67
2021/05/25 05:55:15;;;;;;;0.93;0.50;;;;;;;11.65;66.52;100241.19;5036488;28;20245;-68
2021/05/25 05:57:42;;;;;;;1.80;0.50;;;;;;;11.67;66.33;100241.06;5048294;28;20212;-67
2021/05/25 06:00:10;;;;;;;1.40;0.43;;;;;;;11.67;65.68;100241.06;5044767;28;20228;-67
2021/05/25 06:02:36;;;;;;;1.30;0.50;;;;;;;11.68;65.77;100246.28;5039595;28;20668;-67
2021/05/25 06:05:03;;;;;;;1.03;0.50;;;;;;;11.73;65.66;100260.16;5035757;28;20293;-67
2021/05/25 06:07:29;;;;;;;1.30;0.63;;;;;;;11.77;65.14;100256.31;5037627;28;20229;-67
2021/05/25 06:09:56;;;;;;;0.70;0.50;;;;;;;11.79;64.78;100251.72;5040652;28;20239;-68
2021/05/25 06:12:22;;;;;;;1.67;0.60;;;;;;;11.82;64.76;100264.00;5045806;28;20284;-66
2021/05/25 06:14:49;;;;;;;2.13;0.60;;;;;;;11.85;64.31;100268.22;5040800;28;20279;-67
2021/05/25 06:17:15;;;;;;;1.53;0.47;;;;;;;11.82;63.52;100256.81;5034548;28;20209;-67
2021/05/25 06:19:41;;;;;;;3.17;0.70;;;;;;;11.80;63.57;100266.78;5036303;28;20227;-66
2021/05/25 06:22:07;;;;;;;1.33;0.53;;;;;;;11.81;63.67;100256.94;5037398;28;20212;-66
2021/05/25 06:24:33;;;;;;;2.17;0.63;;;;;;;11.83;63.89;100269.19;5039461;28;20205;-67
2021/05/25 06:26:59;;;;;;;1.03;0.60;;;;;;;11.87;63.74;100266.28;5036335;28;20199;-66
2021/05/25 06:29:25;;;;;;;2.10;0.50;;;;;;;11.93;63.74;100257.84;5039829;28;20619;-67
2021/05/25 06:31:58;;;;;;;1.07;0.60;;;;;;;11.97;63.27;100260.16;5039646;28;20311;-67
2021/05/25 06:34:24;;;;;;;2.10;0.80;;;;;;;11.97;62.91;100265.50;5032741;28;20217;-66
2021/05/25 06:36:50;;;;;;;1.33;0.60;;;;;;;11.97;62.97;100260.16;5032463;28;20206;-66
2021/05/25 06:39:16;;;;;;;1.27;0.70;;;;;;;11.98;62.71;100267.22;5034779;28;20199;-68
2021/05/25 06:41:42;;;;;;;0.80;0.50;;;;;;;12.00;62.58;100265.25;5033490;28;20485;-65
2021/05/25 06:44:08;;;;;;;1.93;0.50;;;;;;;12.05;62.53;100267.59;5030690;28;20726;-66
2021/05/25 06:46:35;;;;;;;0.93;0.60;;;;;;;12.08;62.33;100268.22;5034479;28;20600;-65
2021/05/25 06:49:19;;;;;;;3.57;0.70;;;;;;;12.08;62.11;100270.03;5044943;28;20198;-63
2021/05/25 06:51:46;;;;;;;2.60;0.60;;;;;;;12.10;62.07;100270.75;5038540;28;20210;-67
2021/05/25 06:54:13;;;;;;;1.70;0.70;;;;;;;12.11;61.96;100272.47;5036768;28;20291;-66
2021/05/25 06:56:39;;;;;;;1.07;0.53;;;;;;;12.10;62.12;100265.44;5033461;28;20202;-67
2021/05/25 06:59:05;;;;;;;0.80;0.50;;;;;;;12.08;61.99;100276.22;5038360;28;20256;-67
2021/05/25 07:01:31;;;;;;;1.40;0.50;;;;;;;12.08;61.91;100275.38;5037843;28;20203;-66
2021/05/25 07:03:57;;;;;;;1.67;0.70;;;;;;;12.07;61.96;100282.53;5038466;28;20268;-67
2021/05/25 07:06:25;;;;;;;1.27;0.40;;;;;;;12.04;61.72;100281.88;5033013;28;20212;-67
2021/05/25 07:08:51;;;;;;;0.47;0.40;;;;;;;12.01;61.92;100282.13;5036981;28;20696;-68
2021/05/25 07:11:17;;;;;;;0.70;0.50;;;;;;;11.99;62.01;100279.59;5035262;28;20226;-67
2021/05/25 07:13:43;;;;;;;2.53;0.50;;;;;;;12.00;62.31;100273.25;5032077;28;20207;-67
2021/05/25 07:16:10;;;;;;;0.60;0.60;;;;;;;12.02;62.28;100270.47;5033779;28;20198;-66
2021/05/25 07:18:36;;;;;;;1.07;0.50;;;;;;;12.06;62.12;100285.31;5037889;28;20696;-67
2021/05/25 07:21:03;;;;;;;1.70;0.40;;;;;;;12.10;62.25;100274.28;5033768;28;20272;-66
2021/05/25 07:23:30;;;;;;;0.60;0.40;;;;;;;12.13;61.88;100279.41;5029462;28;20645;-66
2021/05/25 07:25:56;;;;;;;0.63;0.40;;;;;;;12.15;61.69;100279.28;5029373;28;20215;-66
2021/05/25 07:28:22;;;;;;;2.33;0.60;;;;;;;12.18;61.70;100279.06;5031588;28;20663;-67
2021/05/25 07:30:48;;;;;;;0.93;0.50;;;;;;;12.20;61.97;100287.78;5060415;22;20229;-82
2021/05/25 07:33:15;;;;;;;0.40;0.30;;;;;;;12.20;61.44;100286.91;5053257;28;20265;-81
2021/05/25 07:35:41;;;;;;;0.50;0.40;;;;;;;12.18;61.60;100296.91;5052094;28;20202;-81
2021/05/25 07:38:07;;;;;;;0.73;0.40;;;;;;;12.08;61.16;100294.03;5056074;28;20219;-80
2021/05/25 07:40:40;;;;;;;1.03;0.30;;;;;;;11.99;61.59;100294.75;5047671;28;20264;-80
2021/05/25 07:43:06;;;;;;;0.30;0.30;;;;;;;11.91;61.86;100297.13;5057886;28;20233;-80
2021/05/25 07:45:32;;;;;;;0.67;0.50;;;;;;;11.86;62.25;100294.78;5061814;28;20203;-81
2021/05/25 07:47:58;;;;;;;1.83;0.47;;;;;;;11.85;62.65;100287.75;5056664;28;20226;-81
2021/05/25 07:50:25;;;;;;;0.90;0.50;;;;;;;11.88;63.10;100292.00;5051867;28;20218;-79
2021/05/25 07:52:52;;;;;;;1.30;0.33;;;;;;;11.90;63.21;100295.41;5048630;28;20202;-80
2021/05/25 07:55:26;;;;;;;1.30;0.30;;;;;;;11.90;63.26;100292.75;5051062;28;20664;-80
2021/05/25 07:57:56;;;;;;;1.00;0.50;;;;;;;11.99;63.49;100294.75;5046138;28;20225;-80
2021/05/25 08:00:23;;;;;;;0.70;0.43;;;;;;;12.15;63.86;100289.97;5048950;28;20696;-78
2021/05/25 08:02:49;;;;;;;0.93;0.57;;;;;;;12.18;62.72;100287.06;5042267;28;20203;-80
2021/05/25 08:05:17;;;;;;;0.40;0.33;;;;;;;12.24;62.32;100285.72;5052089;28;20265;-80
2021/05/25 08:07:44;;;;;;;0.83;0.37;;;;;;;12.29;62.05;100283.56;5047851;28;20280;-80
2021/05/25 08:10:12;;;;;;;0.90;0.30;;;;;;;12.30;61.96;100280.78;5045759;28;20233;-79
2021/05/25 08:12:41;;;;;;;0.30;0.30;;;;;;;12.42;62.06;100273.63;5044288;28;20213;-80
2021/05/25 08:15:11;;;;;;;0.30;0.30;;;;;;;12.62;62.21;100277.44;5051934;28;20203;-81
2021/05/25 08:17:50;;;;;;;1.00;0.33;;;;;;;12.89;62.08;100272.63;5046822;28;20225;-81
2021/05/25 08:20:18;;;;;;;0.60;0.30;;;;;;;13.24;61.36;100277.03;5044852;28;20208;-81
2021/05/25 08:22:46;;;;;;;0.93;0.30;;;;;;;13.48;60.45;100289.25;5045844;28;20237;-79
2021/05/25 08:25:14;;;;;;;1.27;0.40;;;;;;;13.62;58.01;100285.44;5044187;28;20619;-79
2021/05/25 08:27:40;;;;;;;0.80;0.30;;;;;;;13.71;57.71;100274.00;5048422;28;20228;-81
2021/05/25 08:30:08;;;;;;;0.47;0.30;;;;;;;13.83;57.67;100283.69;5043600;28;20355;-80
2021/05/25 08:32:35;;;;;;;0.50;0.30;;;;;;;13.92;56.33;100286.59;5051081;28;20652;-81
2021/05/25 08:35:02;;;;;;;0.30;0.20;;;;;;;13.93;56.17;100283.78;5047244;28;20229;-80
2021/05/25 08:37:28;;;;;;;0.73;0.30;;;;;;;13.99;56.60;100299.31;5051116;28;20621;-80
2021/05/25 08:39:54;;;;;;;0.80;0.40;;;;;;;14.06;56.67;100289.81;5049882;28;20241;-80
2021/05/25 08:42:21;;;;;;;1.17;0.20;;;;;;;14.14;56.54;100295.41;5048992;28;20249;-80
2021/05/25 08:44:47;;;;;;;0.53;0.50;;;;;;;14.25;56.24;100306.03;5044276;28;20210;-81
2021/05/25 08:47:49;;;;;;;0.30;0.20;;;;;;;14.44;55.88;100299.16;5044924;28;20252;-81
2021/05/25 08:50:25;;;;;;;0.87;0.20;;;;;;;14.51;55.26;100295.81;5029758;28;20754;-81
2021/05/25 08:52:52;;;;;;;0.23;0.10;;;;;;;14.58;55.40;100297.00;5051247;28;20212;-80
2021/05/25 08:55:20;;;;;;;0.37;0.20;;;;;;;14.67;55.22;100305.25;5047398;28;20209;-79
2021/05/25 08:57:46;;;;;;;0.20;0.17;;;;;;;14.76;55.01;100307.97;5050666;28;20248;-78
2021/05/25 09:00:13;;;;;;;0.83;0.20;;;;;;;14.83;56.66;100313.69;5046607;28;20266;-78
2021/05/25 09:02:39;;;;;;;1.60;0.10;;;;;;;14.83;56.28;100319.03;5039438;28;20255;-79
2021/05/25 09:05:22;;;;;;;0.43;0.10;;;;;;;14.73;56.38;100318.97;5050112;28;20201;-83
2021/05/25 09:07:49;;;;;;;0.10;0.10;;;;;;;14.54;56.34;100317.00;5055032;28;20213;-78
2021/05/25 09:10:19;;;;;;;0.53;0.10;;;;;;;14.35;56.89;100314.16;5053738;28;20221;-78
2021/05/25 09:12:46;;;;;;;0.17;0.07;;;;;;;14.18;57.77;100315.56;5052812;28;20211;-77
2021/05/25 09:18:03;;;;;;;0.23;0.10;;;;;;;13.95;59.00;100305.94;5049206;28;20218;-78
2021/05/25 09:20:39;;;;;;;0.43;0.23;;;;;;;13.88;59.67;100305.59;5054161;28;20210;-78
2021/05/25 09:23:08;;;;;;;0.73;0.30;;;;;;;13.84;59.72;100306.81;5041845;28;20210;-83
2021/05/25 09:25:35;;;;;;;0.40;0.20;;;;;;;13.83;61.10;100299.75;5053757;28;20200;-84
2021/05/25 09:28:07;;;;;;;1.70;0.20;;;;;;;13.89;62.75;100287.69;5085488;22;20318;-78
2021/05/25 09:30:34;;;;;;;0.60;0.27;;;;;;;14.03;63.33;100294.56;5090444;28;20244;-77
2021/05/25 09:33:01;;;;;;;0.50;0.20;;;;;;;14.14;63.52;100291.88;5079927;28;20236;-77
2021/05/25 09:35:30;;;;;;;0.20;0.20;;;;;;;14.21;63.51;100296.56;5090561;28;20200;-77
2021/05/25 09:38:00;;;;;;;0.20;0.20;;;;;;;14.28;63.74;100296.06;5088893;28;20225;-81
2021/05/25 09:40:28;;;;;;;0.30;0.20;;;;;;;14.33;62.91;100289.31;5086574;28;20203;-81
2021/05/25 09:43:09;;;;;;;2.17;0.30;;;;;;;14.33;62.64;100292.00;5083326;28;20201;-78
2021/05/25 09:45:35;;;;;;;0.43;0.10;;;;;;;14.27;61.16;100289.84;5079417;28;20554;-80
2021/05/25 09:48:04;;;;;;;1.13;0.30;;;;;;;14.20;61.26;100289.50;5083470;28;20250;-80
2021/05/25 09:50:31;;;;;;;0.10;0.10;;;;;;;14.16;60.84;100305.94;5078514;28;20265;-80
2021/05/25 09:53:07;;;;;;;0.73;0.20;;;;;;;14.08;60.26;100298.56;5083626;28;20291;-81
2021/05/25 09:55:47;;;;;;;0.67;0.20;;;;;;;13.95;60.13;100307.75;5084550;28;20214;-80
2021/05/25 09:58:13;;;;;;;0.30;0.30;;;;;;;13.83;60.38;100310.44;5086977;28;20219;-80
2021/05/25 10:00:40;;;;;;;0.97;0.10;;;;;;;13.64;60.84;100304.06;5089005;28;20209;-80
2021/05/25 10:03:09;;;;;;;0.30;0.07;;;;;;;13.43;61.56;100299.50;5090214;28;20253;-79
2021/05/25 10:05:36;;;;;;;1.03;0.10;;;;;;;13.27;61.99;100300.81;5086512;28;20219;-79
2021/05/25 10:08:03;;;;;;;0.20;0.10;;;;;;;13.14;62.67;100301.78;5089320;28;20228;-80
2021/05/25 10:10:33;;;;;;;0.30;0.10;;;;;;;13.07;63.80;100300.59;5085915;28;20235;-79
2021/05/25 10:12:59;;;;;;;0.10;0.10;;;;;;;13.06;65.13;100298.88;5083817;28;20201;-80
2021/05/25 10:15:27;;;;;;;0.10;0.10;;;;;;;13.06;64.82;100292.69;5081618;28;20201;-80
2021/05/25 10:18:17;;;;;;;0.43;0.17;;;;;;;12.97;64.98;100293.38;5085764;28;20239;-80
2021/05/25 10:20:44;;;;;;;0.10;0.10;;;;;;;12.94;65.50;100289.13;5087710;28;20205;-80
2021/05/25 10:23:10;;;;;;;0.13;0.10;;;;;;;13.04;66.52;100289.28;5083855;28;20204;-81
2021/05/25 10:25:40;;;;;;;0.30;0.13;;;;;;;13.17;67.08;100282.84;5090813;28;20259;-79
2021/05/25 10:28:09;;;;;;;0.20;0.20;;;;;;;13.39;67.54;100279.31;5087842;28;20737;-80
2021/05/25 10:30:41;;;;;;;0.20;0.20;;;;;;;13.52;66.92;100271.13;5091578;28;20267;-80
2021/05/25 10:33:34;;;;;;;0.20;0.20;;;;;;;13.69;65.39;100278.63;5090152;28;20256;-80
2021/05/25 10:36:05;;;;;;;0.70;0.40;;;;;;;13.77;65.12;100273.50;5054398;28;20227;-80
2021/05/25 10:38:33;;;;;;;0.60;0.60;;;;;;;13.81;63.64;100304.38;5084710;28;20224;-79
2021/05/25 10:41:02;;;;;;;0.33;0.30;;;;;;;13.81;62.81;100320.44;5085505;28;20201;-80
2021/05/25 10:43:45;;;;;;;1.03;0.30;;;;;;;13.72;62.46;100339.94;5085292;28;20208;-80
2021/05/25 10:46:24;;;;;;;0.37;0.30;;;;;;;13.55;61.98;100352.00;5082507;28;20690;-79
2021/05/25 10:49:00;;;;;;;1.20;0.23;;;;;;;13.30;62.51;100346.91;5078140;28;20242;-78
2021/05/25 10:52:12;;;;;;;0.20;0.20;;;;;;;13.00;62.81;100346.63;5078413;28;20268;-80
2021/05/25 10:54:59;;;;;;;0.73;0.30;;;;;;;12.73;63.55;100355.78;5078790;28;20201;-78
2021/05/25 10:57:49;;;;;;;0.33;0.30;;;;;;;12.57;64.37;100349.91;5078690;28;20256;-79
2021/05/25 11:00:18;;;;;;;2.10;0.47;;;;;;;12.43;65.31;100342.13;5079248;28;20244;-78
2021/05/25 11:02:52;;;;;;;0.43;0.43;;;;;;;12.36;66.20;100335.56;5077585;28;20292;-79
2021/05/25 11:05:52;;;;;;;0.50;0.40;;;;;;;12.36;66.85;100338.22;5082881;28;20206;-79
2021/05/25 11:08:31;;;;;;;0.40;0.40;;;;;;;12.34;67.59;100337.47;5085640;28;20263;-79
2021/05/25 11:11:28;;;;;;;0.83;0.50;;;;;;;12.33;68.14;100339.31;5086440;28;20678;-79
2021/05/25 11:13:56;;;;;;;0.60;0.40;;;;;;;12.33;68.80;100333.97;5083469;28;20197;-80
2021/05/25 11:16:31;;;;;;;0.40;0.40;;;;;;;12.35;69.61;100324.03;5081113;28;20206;-79
2021/05/25 11:19:20;;;;;;;0.30;0.30;;;;;;;12.44;70.31;100323.31;5086542;28;20307;-78
2021/05/25 11:24:32;;;;;;;0.40;0.30;;;;;;;12.64;70.90;100319.09;5081797;28;20580;-79
2021/05/25 11:27:02;;;;;;;0.20;0.20;;;;;;;12.76;70.30;100325.31;5086165;28;20232;-80
2021/05/25 11:29:32;;;;;;;0.20;0.20;;;;;;;12.86;70.55;100316.47;5083630;28;20208;-82
2021/05/25 11:32:04;;;;;;;0.50;0.30;;;;;;;13.02;70.58;100324.16;5077858;28;20781;-80
2021/05/25 11:34:30;;;;;;;1.10;0.70;;;;;;;13.10;69.74;100335.06;5081297;28;20243;-80
2021/05/25 11:37:01;;;;;;;0.30;0.27;;;;;;;13.17;68.93;100314.94;5081513;28;20213;-77